createdAt,value
2019-01-29T00:01:03.918Z,21.77
2019-01-29T00:03:32.992Z,18.48
2019-01-29T00:06:02.050Z,18.42
2019-01-29T00:08:31.093Z,21.50
2019-01-29T00:11:00.185Z,26.33
2019-01-29T00:13:29.235Z,19.48
2019-01-29T00:15:58.270Z,41.48
2019-01-29T00:18:27.349Z,32.08
2019-01-29T00:20:56.424Z,18.42
2019-01-29T00:23:25.497Z,25.45
2019-01-29T00:25:54.555Z,21.57
2019-01-29T00:28:23.689Z,17.90
2019-01-29T00:30:52.733Z,17.82
2019-01-29T00:33:21.810Z,17.07
2019-01-29T00:35:50.851Z,19.52
2019-01-29T00:38:19.903Z,21.77
2019-01-29T00:40:48.945Z,19.62
2019-01-29T00:43:18.913Z,18.82
2019-01-29T00:45:47.918Z,21.95
2019-01-29T00:48:16.956Z,16.07
2019-01-29T00:50:46.104Z,21.57
2019-01-29T00:53:15.132Z,18.62
2019-01-29T00:55:44.194Z,14.73
2019-01-29T00:58:13.254Z,22.22
2019-01-29T01:00:42.327Z,16.95
2019-01-29T01:03:30.588Z,19.00
2019-01-29T01:05:59.625Z,15.32
2019-01-29T01:08:28.815Z,18.77
2019-01-29T01:10:57.849Z,14.40
2019-01-29T01:13:26.892Z,20.27
2019-01-29T01:15:56.032Z,18.85
2019-01-29T01:18:25.090Z,15.43
2019-01-29T01:20:54.126Z,16.35
2019-01-29T01:23:23.192Z,16.10
2019-01-29T01:25:52.229Z,15.80
2019-01-29T01:28:21.257Z,14.58
2019-01-29T01:30:50.334Z,15.98
2019-01-29T01:33:19.365Z,17.70
2019-01-29T01:35:48.444Z,12.65
2019-01-29T01:38:17.479Z,13.15
2019-01-29T01:40:46.521Z,13.00
2019-01-29T01:43:15.575Z,11.90
2019-01-29T01:45:44.631Z,12.88
2019-01-29T01:48:13.710Z,11.73
2019-01-29T01:50:42.711Z,15.75
2019-01-29T01:53:11.751Z,17.95
2019-01-29T01:55:40.799Z,11.93
2019-01-29T01:58:09.839Z,14.33
2019-01-29T02:00:38.909Z,10.43
2019-01-29T02:03:07.989Z,14.43
2019-01-29T02:05:37.020Z,12.90
2019-01-29T02:08:06.182Z,13.35
2019-01-29T02:10:35.244Z,12.45
2019-01-29T02:13:04.334Z,13.55
2019-01-29T02:15:33.412Z,14.87
2019-01-29T02:18:02.432Z,16.30
2019-01-29T02:20:31.505Z,19.20
2019-01-29T02:23:07.751Z,18.00
2019-01-29T02:25:31.295Z,14.43
2019-01-29T02:28:00.323Z,11.15
2019-01-29T02:30:29.359Z,12.60
2019-01-29T02:32:58.420Z,11.75
2019-01-29T02:35:27.495Z,14.23
2019-01-29T02:37:56.563Z,11.12
2019-01-29T02:40:27.199Z,13.78
2019-01-29T02:42:56.257Z,12.37
2019-01-29T02:45:25.613Z,11.35
2019-01-29T02:47:54.606Z,14.33
2019-01-29T02:50:23.706Z,10.53
2019-01-29T02:52:52.704Z,14.15
2019-01-29T02:55:21.715Z,10.95
2019-01-29T02:57:50.708Z,13.08
2019-01-29T03:00:21.588Z,11.08
2019-01-29T03:02:50.572Z,10.45
2019-01-29T03:05:19.828Z,8.38
2019-01-29T03:07:48.839Z,9.03
2019-01-29T03:10:19.953Z,13.70
2019-01-29T03:12:48.953Z,10.08
2019-01-29T03:15:20.574Z,13.68
2019-01-29T03:17:49.555Z,9.00
2019-01-29T03:20:18.649Z,13.95
2019-01-29T03:22:47.645Z,8.25
2019-01-29T03:25:16.654Z,16.17
2019-01-29T03:27:45.671Z,12.53
2019-01-29T03:30:16.049Z,14.33
2019-01-29T03:32:45.081Z,12.98
2019-01-29T03:35:14.176Z,13.00
2019-01-29T03:37:43.259Z,14.83
2019-01-29T03:40:14.696Z,15.72
2019-01-29T03:42:43.695Z,13.20
2019-01-29T03:45:14.839Z,16.02
2019-01-29T03:47:43.935Z,15.83
2019-01-29T03:50:14.238Z,14.15
2019-01-29T03:52:43.317Z,16.97
2019-01-29T03:55:12.337Z,13.38
2019-01-29T03:57:41.383Z,15.45
2019-01-29T04:00:16.060Z,16.40
2019-01-29T04:05:13.214Z,12.90
2019-01-29T04:07:42.209Z,11.20
2019-01-29T04:10:12.192Z,14.47
2019-01-29T04:12:41.224Z,11.33
2019-01-29T04:15:14.294Z,10.10
2019-01-29T04:17:43.349Z,14.47
2019-01-29T04:20:14.739Z,14.58
2019-01-29T04:22:45.775Z,14.18
2019-01-29T04:25:14.494Z,10.53
2019-01-29T04:27:43.634Z,16.50
2019-01-29T04:30:15.305Z,14.43
2019-01-29T04:32:45.531Z,11.48
2019-01-29T04:35:14.529Z,12.70
2019-01-29T04:37:43.553Z,13.83
2019-01-29T04:40:14.042Z,12.53
2019-01-29T04:42:43.031Z,16.73
2019-01-29T04:45:12.680Z,15.03
2019-01-29T04:47:41.673Z,13.03
2019-01-29T04:50:13.063Z,13.55
2019-01-29T04:52:42.243Z,15.90
2019-01-29T04:55:12.148Z,11.53
2019-01-29T04:57:41.210Z,15.38
2019-01-29T05:00:13.284Z,11.30
2019-01-29T05:02:42.327Z,13.58
2019-01-29T05:05:11.407Z,14.65
2019-01-29T05:07:40.409Z,15.63
2019-01-29T05:10:10.667Z,12.70
2019-01-29T05:12:39.716Z,17.57
2019-01-29T05:15:11.080Z,14.73
2019-01-29T05:17:40.104Z,20.48
2019-01-29T05:20:11.448Z,20.52
2019-01-29T05:22:40.488Z,15.53
2019-01-29T05:25:09.578Z,19.20
2019-01-29T05:27:38.604Z,22.77
2019-01-29T05:30:12.115Z,19.73
2019-01-29T05:32:41.090Z,20.43
2019-01-29T05:35:10.220Z,21.82
2019-01-29T05:37:39.239Z,26.35
2019-01-29T05:40:11.899Z,15.95
2019-01-29T05:42:40.925Z,22.45
2019-01-29T05:45:11.618Z,18.12
2019-01-29T05:47:40.669Z,18.45
2019-01-29T05:50:10.636Z,21.52
2019-01-29T05:52:39.669Z,17.87
2019-01-29T05:55:09.123Z,18.95
2019-01-29T05:57:38.134Z,14.70
2019-01-29T06:00:10.017Z,14.58
2019-01-29T06:02:39.133Z,16.57
2019-01-29T06:05:08.397Z,16.02
2019-01-29T06:07:37.431Z,15.55
2019-01-29T06:10:07.058Z,16.65
2019-01-29T06:12:36.070Z,15.05
2019-01-29T06:15:05.936Z,16.73
2019-01-29T06:17:34.963Z,17.65
2019-01-29T06:20:04.183Z,19.87
2019-01-29T06:22:33.245Z,17.25
2019-01-29T06:25:02.347Z,12.53
2019-01-29T06:27:31.360Z,11.60
2019-01-29T06:30:00.354Z,11.73
2019-01-29T06:32:29.492Z,16.75
2019-01-29T06:34:58.486Z,15.18
2019-01-29T06:37:27.470Z,13.98
2019-01-29T06:39:56.547Z,21.25
2019-01-29T06:42:25.602Z,16.42
2019-01-29T06:44:54.666Z,14.30
2019-01-29T06:47:23.743Z,11.35
2019-01-29T06:49:52.773Z,13.43
2019-01-29T06:52:21.798Z,20.27
2019-01-29T06:54:50.866Z,18.98
2019-01-29T06:57:19.867Z,10.63
2019-01-29T06:59:48.881Z,14.60
2019-01-29T07:02:17.899Z,13.93
2019-01-29T07:04:46.913Z,15.28
2019-01-29T07:07:15.944Z,12.20
2019-01-29T07:09:45.057Z,12.30
2019-01-29T07:12:14.058Z,20.75
2019-01-29T07:14:43.110Z,24.00
2019-01-29T07:17:28.859Z,15.15
2019-01-29T07:20:00.662Z,15.60
2019-01-29T07:22:29.701Z,22.17
2019-01-29T07:24:58.778Z,15.48
2019-01-29T07:27:27.884Z,19.35
2019-01-29T07:29:56.904Z,24.47
2019-01-29T07:32:25.956Z,21.07
2019-01-29T07:34:55.086Z,23.47
2019-01-29T07:37:24.200Z,36.83
2019-01-29T07:39:53.296Z,109.52
2019-01-29T07:42:22.404Z,19.90
2019-01-29T07:44:51.412Z,19.98
2019-01-29T07:47:21.204Z,18.90
2019-01-29T07:49:50.553Z,21.73
2019-01-29T07:52:19.614Z,24.23
2019-01-29T07:54:51.217Z,25.70
2019-01-29T07:57:19.537Z,21.52
2019-01-29T07:59:48.606Z,17.65
2019-01-29T08:02:17.646Z,26.35
2019-01-29T08:04:46.797Z,19.02
2019-01-29T08:07:15.917Z,18.48
2019-01-29T08:09:45.115Z,20.10
2019-01-29T08:12:14.175Z,28.32
2019-01-29T08:14:43.257Z,19.32
2019-01-29T08:17:12.313Z,21.50
2019-01-29T08:19:41.419Z,21.85
2019-01-29T08:22:10.445Z,18.60
2019-01-29T08:24:39.522Z,21.00
2019-01-29T08:27:08.704Z,27.27
2019-01-29T08:29:37.780Z,21.97
2019-01-29T08:32:06.935Z,20.50
2019-01-29T08:34:36.228Z,20.85
2019-01-29T08:37:05.341Z,21.80
2019-01-29T08:39:34.426Z,21.60
2019-01-29T08:42:03.494Z,24.90
2019-01-29T08:44:32.513Z,25.23
2019-01-29T08:47:01.578Z,21.10
2019-01-29T08:49:30.669Z,21.20
2019-01-29T08:51:59.814Z,21.62
2019-01-29T08:54:28.886Z,22.02
2019-01-29T08:57:00.835Z,19.52
2019-01-29T08:59:29.855Z,21.33
2019-01-29T09:01:59.038Z,26.12
2019-01-29T09:04:28.148Z,31.55
2019-01-29T09:06:57.224Z,24.00
2019-01-29T09:09:26.267Z,34.33
2019-01-29T09:11:55.385Z,27.67
2019-01-29T09:14:24.429Z,29.75
2019-01-29T09:16:53.482Z,30.72
2019-01-29T09:19:22.577Z,35.92
2019-01-29T09:21:51.653Z,35.35
2019-01-29T09:24:20.727Z,35.73
2019-01-29T09:26:49.743Z,41.15
2019-01-29T09:29:18.786Z,45.88
2019-01-29T09:31:47.807Z,43.10
2019-01-29T09:34:16.853Z,38.80
2019-01-29T09:36:45.871Z,43.80
2019-01-29T09:39:14.864Z,45.33
2019-01-29T09:41:43.954Z,52.75
2019-01-29T09:44:12.936Z,54.35
2019-01-29T09:46:41.928Z,52.58
2019-01-29T09:49:11.328Z,52.98
2019-01-29T09:51:40.448Z,50.00
2019-01-29T09:54:09.463Z,61.45
2019-01-29T09:56:38.510Z,66.75
2019-01-29T09:59:07.544Z,61.60
2019-01-29T10:01:36.579Z,59.05
2019-01-29T10:04:05.738Z,60.30
2019-01-29T10:06:34.774Z,70.75
2019-01-29T10:09:06.861Z,57.60
2019-01-29T10:11:37.977Z,64.90
2019-01-29T10:14:07.196Z,55.35
2019-01-29T10:16:36.269Z,72.27
2019-01-29T10:19:05.529Z,63.10
2019-01-29T10:21:34.610Z,68.50
2019-01-29T10:24:03.667Z,71.37
2019-01-29T10:26:32.753Z,63.35
2019-01-29T10:29:01.733Z,67.97
2019-01-29T10:31:30.811Z,61.33
2019-01-29T10:33:59.879Z,59.83
2019-01-29T10:36:28.917Z,51.13
2019-01-29T10:38:57.904Z,56.35
2019-01-29T10:41:26.902Z,52.75
2019-01-29T10:43:55.908Z,50.70
2019-01-29T10:46:24.912Z,45.92
2019-01-29T10:48:53.929Z,54.85
2019-01-29T10:51:22.904Z,47.05
2019-01-29T10:53:52.071Z,47.00
2019-01-29T10:56:21.137Z,40.63
2019-01-29T10:58:50.144Z,45.40
2019-01-29T11:01:19.152Z,42.03
2019-01-29T11:03:48.272Z,47.08
2019-01-29T11:06:17.258Z,40.00
2019-01-29T11:08:46.302Z,45.08
2019-01-29T11:11:21.235Z,38.23
2019-01-29T11:13:50.200Z,40.70
2019-01-29T11:16:21.216Z,41.58
2019-01-29T11:19:03.185Z,44.23
2019-01-29T11:21:28.243Z,42.55
2019-01-29T11:23:57.272Z,36.17
2019-01-29T11:26:26.359Z,47.60
2019-01-29T11:29:01.541Z,40.50
2019-01-29T11:31:35.603Z,34.33
2019-01-29T11:34:04.917Z,41.75
2019-01-29T11:36:35.732Z,42.80
2019-01-29T11:39:08.103Z,38.55
2019-01-29T11:41:37.045Z,34.63
2019-01-29T11:44:29.863Z,43.38
2019-01-29T11:46:59.102Z,37.33
2019-01-29T11:49:31.490Z,31.55
2019-01-29T11:52:02.337Z,31.75
2019-01-29T11:54:31.458Z,36.03
2019-01-29T11:57:00.558Z,34.58
2019-01-29T11:59:29.590Z,32.33
2019-01-29T12:01:58.604Z,36.70
2019-01-29T12:04:27.828Z,37.23
2019-01-29T12:06:56.844Z,36.10
2019-01-29T12:09:25.873Z,34.98
2019-01-29T12:11:54.862Z,36.03
2019-01-29T12:14:23.910Z,39.50
2019-01-29T12:16:52.930Z,29.65
2019-01-29T12:19:22.093Z,35.38
2019-01-29T12:21:51.089Z,31.82
2019-01-29T12:24:20.101Z,35.10
2019-01-29T12:26:49.121Z,37.65
2019-01-29T12:29:18.160Z,33.13
2019-01-29T12:31:47.132Z,37.48
2019-01-29T12:34:20.533Z,42.40
2019-01-29T12:36:49.561Z,38.53
2019-01-29T12:39:18.562Z,37.75
2019-01-29T12:41:47.556Z,37.48
2019-01-29T12:44:16.571Z,39.80
2019-01-29T12:46:45.569Z,37.58
2019-01-29T12:49:14.597Z,28.52
2019-01-29T12:52:05.446Z,35.10
2019-01-29T12:54:34.574Z,38.67
2019-01-29T12:57:03.587Z,41.45
2019-01-29T12:59:32.626Z,42.80
2019-01-29T13:02:01.666Z,41.85
2019-01-29T13:04:30.670Z,40.73
2019-01-29T13:07:00.130Z,38.60
2019-01-29T13:09:29.180Z,38.80
2019-01-29T13:11:58.238Z,34.55
2019-01-29T13:14:27.284Z,40.17
2019-01-29T13:16:56.283Z,37.33
2019-01-29T13:19:25.319Z,41.15
2019-01-29T13:21:54.344Z,48.00
2019-01-29T13:24:23.375Z,44.83
2019-01-29T13:26:52.447Z,40.85
2019-01-29T13:29:21.510Z,41.02
2019-01-29T13:31:50.542Z,43.30
2019-01-29T13:34:19.590Z,43.28
2019-01-29T13:36:48.653Z,36.88
2019-01-29T13:39:18.041Z,40.55
2019-01-29T13:41:47.039Z,40.55
2019-01-29T13:44:16.023Z,37.28
2019-01-29T13:46:45.015Z,40.03
2019-01-29T13:49:14.173Z,33.23
2019-01-29T13:51:43.243Z,36.98
2019-01-29T13:54:12.279Z,34.15
2019-01-29T13:56:45.347Z,31.68
2019-01-29T13:59:14.413Z,26.97
2019-01-29T14:01:43.445Z,30.85
2019-01-29T14:04:12.475Z,28.65
2019-01-29T14:06:41.506Z,24.77
2019-01-29T14:09:10.573Z,25.17
2019-01-29T14:11:39.703Z,27.62
2019-01-29T14:14:08.718Z,24.72
2019-01-29T14:16:37.832Z,21.15
2019-01-29T14:19:10.026Z,24.07
2019-01-29T14:21:39.072Z,23.18
2019-01-29T14:24:08.062Z,23.75
2019-01-29T14:26:37.153Z,24.12
2019-01-29T14:29:06.327Z,22.87
2019-01-29T14:31:35.383Z,24.00
2019-01-29T14:34:04.655Z,26.30
2019-01-29T14:36:33.632Z,20.05
2019-01-29T14:39:54.337Z,26.68
2019-01-29T14:42:23.380Z,21.90
2019-01-29T14:44:53.975Z,22.82
2019-01-29T14:47:23.000Z,21.95
2019-01-29T14:49:52.123Z,22.55
2019-01-29T14:52:21.239Z,21.27
2019-01-29T14:54:50.296Z,23.57
2019-01-29T14:57:19.415Z,20.77
2019-01-29T14:59:48.473Z,21.95
2019-01-29T15:02:17.559Z,23.83
2019-01-29T15:04:46.718Z,19.77
2019-01-29T15:07:15.888Z,21.17
2019-01-29T15:09:44.935Z,24.15
2019-01-29T15:12:14.053Z,22.73
2019-01-29T15:14:43.143Z,22.55
2019-01-29T15:17:36.531Z,23.00
2019-01-29T15:20:06.783Z,21.87
2019-01-29T15:22:35.938Z,23.02
2019-01-29T15:25:05.750Z,19.02
2019-01-29T15:27:35.128Z,21.75
2019-01-29T15:30:04.422Z,22.75
2019-01-29T15:32:33.486Z,20.25
2019-01-29T15:35:02.613Z,20.57
2019-01-29T15:37:31.761Z,21.40
2019-01-29T15:40:00.895Z,50.88
2019-01-29T15:42:30.108Z,61.95
2019-01-29T15:44:59.187Z,27.50
2019-01-29T15:47:28.447Z,20.75
2019-01-29T15:50:26.617Z,25.15
2019-01-29T15:52:58.857Z,23.50
2019-01-29T15:55:27.939Z,20.48
2019-01-29T15:57:57.241Z,21.45
2019-01-29T16:00:28.239Z,17.35
2019-01-29T16:02:57.379Z,30.32
2019-01-29T16:05:27.399Z,33.48
2019-01-29T16:07:56.520Z,15.88
2019-01-29T16:10:28.260Z,25.08
2019-01-29T16:12:57.404Z,21.93
2019-01-29T16:15:26.540Z,26.00
2019-01-29T16:17:55.756Z,24.80
2019-01-29T16:20:25.020Z,27.73
2019-01-29T16:22:54.192Z,18.62
2019-01-29T16:25:23.401Z,19.05
2019-01-29T16:27:52.592Z,17.90
2019-01-29T16:30:26.276Z,16.93
2019-01-29T16:32:55.418Z,17.17
2019-01-29T16:35:33.449Z,17.87
2019-01-29T16:38:02.886Z,21.45
2019-01-29T16:40:32.019Z,15.43
2019-01-29T16:43:01.188Z,9.75
2019-01-29T16:45:31.935Z,11.55
2019-01-29T16:48:01.088Z,13.58
2019-01-29T16:50:30.192Z,8.85
2019-01-29T16:52:59.463Z,15.28
2019-01-29T16:55:28.540Z,10.48
2019-01-29T16:57:57.648Z,11.22
2019-01-29T17:00:28.271Z,11.05
2019-01-29T17:02:58.279Z,14.38
2019-01-29T17:05:27.407Z,15.05
2019-01-29T17:07:56.487Z,10.35
2019-01-29T17:10:25.588Z,17.75
2019-01-29T17:12:54.699Z,11.38
2019-01-29T17:15:28.221Z,10.82
2019-01-29T17:17:58.621Z,12.13
2019-01-29T17:20:37.939Z,10.93
2019-01-29T17:23:07.685Z,12.45
2019-01-29T17:25:36.749Z,11.22
2019-01-29T17:28:07.480Z,14.53
2019-01-29T17:30:41.386Z,12.82
2019-01-29T17:33:11.437Z,12.50
2019-01-29T17:35:41.283Z,11.68
2019-01-29T17:38:10.386Z,8.48
2019-01-29T17:40:39.508Z,11.85
2019-01-29T17:43:08.758Z,11.83
2019-01-29T17:45:40.687Z,10.93
2019-01-29T17:48:09.938Z,10.95
2019-01-29T17:50:40.570Z,18.00
2019-01-29T17:53:09.762Z,17.32
2019-01-29T17:55:40.288Z,18.50
2019-01-29T17:58:10.415Z,15.70
2019-01-29T18:00:41.298Z,31.25
2019-01-29T18:03:10.413Z,35.88
2019-01-29T18:05:39.601Z,17.05
2019-01-29T18:08:08.875Z,24.50
2019-01-29T18:10:38.083Z,18.85
2019-01-29T18:13:07.341Z,17.73
2019-01-29T18:15:36.758Z,30.55
2019-01-29T18:18:07.735Z,25.82
2019-01-29T18:20:36.951Z,36.38
2019-01-29T18:23:06.185Z,35.13
2019-01-29T18:25:35.345Z,29.50
2019-01-29T18:28:04.590Z,34.48
2019-01-29T18:30:33.877Z,33.65
2019-01-29T18:33:03.404Z,24.37
2019-01-29T18:35:32.649Z,28.55
2019-01-29T18:38:01.786Z,27.58
2019-01-29T18:40:37.446Z,30.65
2019-01-29T18:43:06.723Z,31.15
2019-01-29T18:45:37.988Z,25.52
2019-01-29T18:48:07.082Z,25.80
2019-01-29T18:50:36.643Z,20.48
2019-01-29T18:53:08.140Z,22.27
2019-01-29T18:55:37.355Z,23.18
2019-01-29T18:58:12.039Z,25.15
2019-01-29T19:00:38.086Z,25.35
2019-01-29T19:03:07.333Z,23.80
2019-01-29T19:05:36.489Z,24.95
2019-01-29T19:08:05.766Z,24.25
2019-01-29T19:10:35.066Z,25.02
2019-01-29T19:13:04.813Z,22.20
2019-01-29T19:15:34.154Z,20.40
2019-01-29T19:18:03.333Z,17.42
2019-01-29T19:20:32.631Z,22.85
2019-01-29T19:23:02.102Z,22.05
2019-01-29T19:25:31.357Z,20.08
2019-01-29T19:28:00.833Z,21.17
2019-01-29T19:30:31.960Z,33.50
2019-01-29T19:33:01.362Z,29.45
2019-01-29T19:35:30.799Z,30.17
2019-01-29T19:38:00.895Z,31.23
2019-01-29T19:40:30.386Z,30.62
2019-01-29T19:43:00.090Z,35.80
2019-01-29T19:45:31.718Z,40.95
2019-01-29T19:48:01.397Z,38.17
2019-01-29T19:50:31.685Z,33.67
2019-01-29T19:53:00.991Z,34.73
2019-01-29T19:55:30.212Z,36.83
2019-01-29T19:58:08.682Z,36.30
2019-01-29T20:00:33.625Z,39.38
2019-01-29T20:03:08.252Z,34.95
2019-01-29T20:05:37.927Z,38.30
2019-01-29T20:08:09.875Z,30.62
2019-01-29T20:10:42.062Z,27.73
2019-01-29T20:13:11.510Z,32.70
2019-01-29T20:15:40.929Z,33.40
2019-01-29T20:18:13.432Z,24.57
2019-01-29T20:20:42.520Z,30.00
2019-01-29T20:23:11.797Z,33.53
2019-01-29T20:25:40.982Z,38.17
2019-01-29T20:28:10.174Z,33.23
2019-01-29T20:30:40.251Z,28.47
2019-01-29T20:33:09.840Z,32.98
2019-01-29T20:35:39.459Z,33.63
2019-01-29T20:38:10.689Z,34.38
2019-01-29T20:40:40.565Z,32.42
2019-01-29T20:43:10.211Z,30.57
2019-01-29T20:45:41.171Z,26.15
2019-01-29T20:48:10.370Z,27.73
2019-01-29T20:51:05.659Z,24.20
2019-01-29T20:53:36.556Z,30.05
2019-01-29T20:56:06.259Z,34.98
2019-01-29T20:58:35.790Z,32.38
2019-01-29T21:01:05.480Z,30.80
2019-01-29T21:03:34.681Z,35.55
2019-01-29T21:06:04.054Z,30.60
2019-01-29T21:08:33.370Z,28.40
2019-01-29T21:11:02.739Z,33.25
2019-01-29T21:13:31.888Z,28.07
2019-01-29T21:16:01.134Z,27.73
2019-01-29T21:18:30.432Z,31.82
2019-01-29T21:20:59.770Z,27.65
2019-01-29T21:23:29.123Z,27.58
2019-01-29T21:25:58.434Z,26.93
2019-01-29T21:28:28.197Z,23.80
2019-01-29T21:30:57.533Z,30.08
2019-01-29T21:33:26.895Z,25.50
2019-01-29T21:35:56.173Z,26.97
2019-01-29T21:38:26.419Z,23.32
2019-01-29T21:40:55.695Z,25.60
2019-01-29T21:43:24.934Z,28.35
2019-01-29T21:45:54.153Z,30.50
2019-01-29T21:48:23.277Z,27.42
2019-01-29T21:50:52.734Z,33.92
2019-01-29T21:53:22.070Z,28.17
2019-01-29T21:55:51.371Z,31.35
2019-01-29T21:58:20.655Z,32.85
2019-01-29T22:00:49.882Z,27.82
2019-01-29T22:03:19.143Z,23.80
2019-01-29T22:05:48.542Z,33.08
2019-01-29T22:08:17.798Z,33.63
2019-01-29T22:10:46.955Z,31.07
2019-01-29T22:13:16.198Z,30.77
2019-01-29T22:15:45.545Z,32.73
2019-01-29T22:18:15.660Z,44.10
2019-01-29T22:20:44.868Z,44.40
2019-01-29T22:23:14.103Z,35.13
2019-01-29T22:25:43.242Z,34.43
2019-01-29T22:28:12.705Z,42.48
2019-01-29T22:30:43.249Z,40.40
2019-01-29T22:33:14.531Z,34.90
2019-01-29T22:35:45.533Z,36.33
2019-01-29T22:38:14.748Z,34.85
2019-01-29T22:40:43.907Z,28.65
2019-01-29T22:43:13.073Z,32.58
2019-01-29T22:45:42.165Z,32.80
2019-01-29T22:48:11.637Z,32.05
2019-01-29T22:50:42.254Z,33.40
2019-01-29T22:53:11.538Z,28.12
2019-01-29T22:55:40.710Z,30.35
2019-01-29T22:58:09.991Z,27.90
2019-01-29T23:01:05.308Z,34.73
2019-01-29T23:06:42.190Z,32.45
2019-01-29T23:09:12.052Z,32.40
2019-01-29T23:11:41.156Z,32.58
2019-01-29T23:14:10.326Z,35.20
2019-01-29T23:16:39.506Z,34.53
2019-01-29T23:19:08.662Z,38.45
2019-01-29T23:21:37.962Z,34.85
2019-01-29T23:24:07.196Z,35.25
2019-01-29T23:26:36.573Z,34.20
2019-01-29T23:29:05.764Z,31.33
2019-01-29T23:31:35.006Z,33.18
2019-01-29T23:34:04.119Z,37.58
2019-01-29T23:36:33.294Z,36.03
2019-01-29T23:39:02.529Z,32.28
2019-01-29T23:41:31.679Z,29.18
2019-01-29T23:44:00.800Z,33.13
2019-01-29T23:46:29.946Z,31.42
2019-01-29T23:48:59.063Z,26.90
2019-01-29T23:51:28.218Z,29.75
2019-01-29T23:53:57.635Z,28.17
2019-01-29T23:56:26.814Z,30.00
2019-01-29T23:58:56.104Z,30.82
